»·PEaware :: N89455 KPTV-KLAX

N89455 :: KPTV-KLAX

FLIGHT INFORMATION

Flight Status: Arrived
Operator: Privately registered:
United States
More flights under this callsign
Pilot: Dretana A. (25430)
Aircraft: CESSNA 206 STATIONAIR
(C206)
More flights by this aircraft type
Origin: KPTV Porterville Mun
United States
Destination: KLAX Los Angeles Intl
United States
More flights between these airports :: More routes between these airports
Route: +TTE V165 EHF V165 LHS V459 DARTS
File this flight plan on PilotEdge
Remarks:
Altitude:
(Current/Filed)
7,000ft
Speed:
(Current/Filed)
120kts
Departed: 09-Nov-19 10:41 AM
Arrived: 09-Nov-19 11:49 AM
Distance/Time
Traveled:
130nm/1:08
Distance/Time
To Go:
Arrived

Flight Plot

Page will automatically refresh every two minutes.

Flight plan parsing failed; only flown route is shown


Map Options




Map Legend


Flown Route
Filed Route
Departure Airport
Arrival Airport
Navaid (VOR, NDB)
Fix

Horizontal Profiles

Position Reports

Time Latitude Longitude Heading Altitude Ground
Speed
09-Nov-19 10:37 36.027737 -119.055464 45 445ft 0kts
09-Nov-19 10:38 36.026121 -119.055913 181 446ft 23kts
09-Nov-19 10:39 36.025177 -119.055938 184 445ft 0kts
09-Nov-19 10:40 36.029429 -119.062475 315 472ft 96kts
09-Nov-19 10:41 36.051205 -119.092141 297 1327ft 127kts
09-Nov-19 10:42 36.042548 -119.128322 189 1856ft 133kts
09-Nov-19 10:43 36.005962 -119.117997 166 1975ft 132kts
09-Nov-19 10:44 35.968230 -119.112854 181 1991ft 139kts
09-Nov-19 10:45 35.932226 -119.099149 156 1989ft 134kts
09-Nov-19 10:46 35.898322 -119.080389 155 2077ft 127kts
09-Nov-19 10:47 35.870010 -119.058765 143 2555ft 116kts
09-Nov-19 10:48 35.843109 -119.038236 166 3050ft 113kts
09-Nov-19 10:49 35.811917 -119.039084 187 3548ft 113kts
09-Nov-19 10:50 35.780666 -119.044531 188 4046ft 114kts
09-Nov-19 10:52 35.748296 -119.050301 189 4552ft 119kts
09-Nov-19 10:53 35.714927 -119.056258 191 5055ft 122kts
09-Nov-19 10:54 35.682028 -119.062125 193 5544ft 123kts
09-Nov-19 10:55 35.648374 -119.068125 195 6046ft 121kts
09-Nov-19 10:56 35.615374 -119.074003 197 6549ft 117kts
09-Nov-19 10:57 35.583365 -119.079712 197 7044ft 115kts
09-Nov-19 10:58 35.551741 -119.085345 197 7540ft 114kts
09-Nov-19 10:59 35.520470 -119.090907 198 8037ft 112kts
09-Nov-19 11:00 35.489499 -119.096332 193 8537ft 115kts
09-Nov-19 11:01 35.461381 -119.069795 145 8997ft 138kts
09-Nov-19 11:02 35.430894 -119.035956 143 9001ft 152kts
09-Nov-19 11:03 35.399753 -119.000649 143 9000ft 153kts
09-Nov-19 11:04 35.368459 -118.965113 143 9000ft 153kts
09-Nov-19 11:05 35.337197 -118.929639 143 9000ft 153kts
09-Nov-19 11:06 35.305799 -118.894051 143 9000ft 153kts
09-Nov-19 11:07 35.274349 -118.858438 143 8999ft 153kts
09-Nov-19 11:07 35.248214 -118.828880 143 9000ft 153kts
09-Nov-19 11:09 35.211571 -118.787487 143 9000ft 153kts
09-Nov-19 11:10 35.179315 -118.753895 167 9000ft 146kts
09-Nov-19 11:10 35.147139 -118.742213 172 9000ft 144kts
09-Nov-19 11:11 35.108297 -118.728493 171 9000ft 146kts
09-Nov-19 11:13 35.060289 -118.711542 170 8908ft 161kts
09-Nov-19 11:13 35.026847 -118.699577 171 8998ft 147kts
09-Nov-19 11:14 34.987529 -118.685504 171 9000ft 147kts
09-Nov-19 11:16 34.941669 -118.669098 171 9000ft 147kts
09-Nov-19 11:16 34.909060 -118.657444 171 9000ft 147kts
09-Nov-19 11:17 34.869718 -118.643396 171 9000ft 147kts
09-Nov-19 11:18 34.830442 -118.629386 171 9000ft 147kts
09-Nov-19 11:19 34.791226 -118.615411 171 8999ft 147kts
09-Nov-19 11:20 34.751958 -118.601430 171 8999ft 146kts
09-Nov-19 11:21 34.712693 -118.587463 171 9000ft 146kts
09-Nov-19 11:22 34.673907 -118.571597 161 9000ft 150kts
09-Nov-19 11:23 34.636237 -118.549451 161 9000ft 150kts
09-Nov-19 11:24 34.598567 -118.527362 161 9000ft 150kts
09-Nov-19 11:25 34.560847 -118.505266 161 8998ft 150kts
09-Nov-19 11:26 34.523163 -118.483214 161 8990ft 150kts
09-Nov-19 11:27 34.485452 -118.461169 161 8990ft 150kts
09-Nov-19 11:28 34.447914 -118.439250 161 8990ft 150kts
09-Nov-19 11:29 34.410050 -118.417163 161 8990ft 150kts
09-Nov-19 11:30 34.371549 -118.394731 161 8559ft 154kts
09-Nov-19 11:31 34.332745 -118.372125 161 8082ft 154kts
09-Nov-19 11:32 34.304473 -118.355617 161 7732ft 154kts
09-Nov-19 11:33 34.265876 -118.333066 161 7253ft 153kts
09-Nov-19 11:34 34.229206 -118.311692 161 6985ft 136kts
09-Nov-19 11:35 34.195768 -118.292286 162 6990ft 133kts
09-Nov-19 11:36 34.161338 -118.272368 161 6995ft 142kts
09-Nov-19 11:37 34.124840 -118.250943 161 6991ft 147kts
09-Nov-19 11:38 34.088231 -118.229133 159 6838ft 146kts
09-Nov-19 11:39 34.051517 -118.205461 154 5764ft 157kts
09-Nov-19 11:40 34.014446 -118.181784 152 4475ft 141kts
09-Nov-19 11:41 33.979628 -118.168068 200 3738ft 125kts
09-Nov-19 11:42 33.957376 -118.198348 241 3253ft 125kts
09-Nov-19 11:43 33.952261 -118.238567 259 2827ft 110kts
09-Nov-19 11:44 33.946794 -118.277723 260 2282ft 119kts
09-Nov-19 11:45 33.943574 -118.317663 264 1529ft 121kts
09-Nov-19 11:46 33.940076 -118.356804 263 720ft 109kts
09-Nov-19 11:47 33.937235 -118.385752 262 138ft 78kts
09-Nov-19 11:48 33.936167 -118.396367 262 130ft 28kts

Navigation Log

Ident Type
Flight plan parsing failed, navigation log unavailable